Terminal Aerodrome Forecast
Issued by NWS

Home | Current Version | Previous Version | Text Only | Print | Product List | Glossary Off
Versions: 1 2 3 4 5 6 7 8 9 10 11 12 13 14 15 16

372
FTUS43 KBIS 162104 AAB
TAFMOT
TAF AMD
KMOT 162104Z 1621/1718 14012G22KT P6SM FEW021 SCT100
     FM170000 16011G19KT P6SM BKN120
     FM170500 22009KT P6SM BKN130
     FM171100 28010KT P6SM SCT200=

USA.gov is the U.S. government's official web portal to all federal, state and local government web resources and services.